sensor_id;sensor_type;location;lat;lon;timestamp;pressure;altitude;pressure_sealevel;temperature;humidity
24013;BME280;12220;50.194;18.948;2022-12-29T00:01:47;101959.77;;;4.90;60.69
24013;BME280;12220;50.194;18.948;2022-12-29T00:03:48;101959.77;;;4.90;60.72
24013;BME280;12220;50.194;18.948;2022-12-29T00:05:56;101959.77;;;4.90;60.74
24013;BME280;12220;50.194;18.948;2022-12-29T00:08:00;101956.13;;;4.91;60.82
24013;BME280;12220;50.194;18.948;2022-12-29T00:10:01;101951.63;;;4.90;60.89
24013;BME280;12220;50.194;18.948;2022-12-29T00:12:04;101947.13;;;4.89;60.84
24013;BME280;12220;50.194;18.948;2022-12-29T00:14:06;101953.46;;;4.89;60.77
24013;BME280;12220;50.194;18.948;2022-12-29T00:16:21;101945.41;;;4.86;60.73
24013;BME280;12220;50.194;18.948;2022-12-29T00:18:22;101936.45;;;4.83;60.83
24013;BME280;12220;50.194;18.948;2022-12-29T00:20:23;101695.24;;;3.40;60.83
24013;BME280;12220;50.194;18.948;2022-12-29T00:22:37;101947.38;;;4.80;60.94
24013;BME280;12220;50.194;18.948;2022-12-29T00:24:50;101946.54;;;4.78;60.87
24013;BME280;12220;50.194;18.948;2022-12-29T00:27:12;101939.41;;;4.74;60.89
24013;BME280;12220;50.194;18.948;2022-12-29T00:29:25;101946.68;;;4.71;60.98
24013;BME280;12220;50.194;18.948;2022-12-29T00:31:38;101934.95;;;4.71;61.10
24013;BME280;12220;50.194;18.948;2022-12-29T00:33:55;101935.91;;;4.68;61.22
24013;BME280;12220;50.194;18.948;2022-12-29T00:38:43;101922.39;;;4.67;61.43
24013;BME280;12220;50.194;18.948;2022-12-29T00:41:00;101919.63;;;4.68;61.50
24013;BME280;12220;50.194;18.948;2022-12-29T00:43:21;101913.28;;;4.69;61.52
24013;BME280;12220;50.194;18.948;2022-12-29T00:45:45;101921.38;;;4.71;61.52
24013;BME280;12220;50.194;18.948;2022-12-29T00:47:47;101914.20;;;4.68;61.39
24013;BME280;12220;50.194;18.948;2022-12-29T00:49:48;101917.88;;;4.66;61.35
24013;BME280;12220;50.194;18.948;2022-12-29T00:51:50;101912.54;;;4.63;61.39
24013;BME280;12220;50.194;18.948;2022-12-29T00:54:00;101919.84;;;4.61;61.42
24013;BME280;12220;50.194;18.948;2022-12-29T00:56:02;101910.00;;;4.57;61.46
24013;BME280;12220;50.194;18.948;2022-12-29T00:58:03;101916.35;;;4.56;61.53
24013;BME280;12220;50.194;18.948;2022-12-29T01:00:05;101904.58;;;4.57;61.61
24013;BME280;12220;50.194;18.948;2022-12-29T01:02:13;101904.58;;;4.57;61.68
24013;BME280;12220;50.194;18.948;2022-12-29T01:04:15;101897.36;;;4.56;61.73
24013;BME280;12220;50.194;18.948;2022-12-29T01:06:16;101892.80;;;4.58;61.75
24013;BME280;12220;50.194;18.948;2022-12-29T01:08:17;101886.42;;;4.59;61.76
24013;BME280;12220;50.194;18.948;2022-12-29T01:10:28;101899.93;;;4.62;61.78
24013;BME280;12220;50.194;18.948;2022-12-29T01:12:29;101895.44;;;4.61;61.78
24013;BME280;12220;50.194;18.948;2022-12-29T01:14:43;101891.79;;;4.62;61.78
24013;BME280;12220;50.194;18.948;2022-12-29T01:16:45;101903.53;;;4.62;61.84
24013;BME280;12220;50.194;18.948;2022-12-29T01:18:48;101900.77;;;4.64;61.84
24013;BME280;12220;50.194;18.948;2022-12-29T01:20:49;101906.19;;;4.64;61.78
24013;BME280;12220;50.194;18.948;2022-12-29T01:22:50;101683.61;;;3.37;61.70
24013;BME280;12220;50.194;18.948;2022-12-29T01:24:52;101904.37;;;4.64;61.82
24013;BME280;12220;50.194;18.948;2022-12-29T01:27:03;101900.77;;;4.64;61.87
24013;BME280;12220;50.194;18.948;2022-12-29T01:29:04;101915.22;;;4.64;61.91
24013;BME280;12220;50.194;18.948;2022-12-29T01:31:06;101907.98;;;4.65;61.95
24013;BME280;12220;50.194;18.948;2022-12-29T01:33:08;101914.30;;;4.65;62.00
24013;BME280;12220;50.194;18.948;2022-12-29T01:35:18;101916.05;;;4.68;62.02
24013;BME280;12220;50.194;18.948;2022-12-29T01:37:20;101920.60;;;4.66;61.85
24013;BME280;12220;50.194;18.948;2022-12-29T01:39:21;101917.05;;;4.64;61.76
24013;BME280;12220;50.194;18.948;2022-12-29T01:41:23;101917.09;;;4.62;61.72
24013;BME280;12220;50.194;18.948;2022-12-29T01:45:55;101946.11;;;4.59;61.81
24013;BME280;12220;50.194;18.948;2022-12-29T01:48:01;101922.60;;;4.59;61.85
24013;BME280;12220;50.194;18.948;2022-12-29T01:50:15;101917.23;;;4.58;61.84
24013;BME280;12220;50.194;18.948;2022-12-29T01:52:18;101908.13;;;4.59;61.83
24013;BME280;12220;50.194;18.948;2022-12-29T01:56:32;101901.66;;;4.64;61.77
24013;BME280;12220;50.194;18.948;2022-12-29T01:58:36;101896.18;;;4.66;61.86
24013;BME280;12220;50.194;18.948;2022-12-29T02:00:39;101891.62;;;4.68;61.83
24013;BME280;12220;50.194;18.948;2022-12-29T02:02:50;101891.53;;;4.71;62.01
24013;BME280;12220;50.194;18.948;2022-12-29T02:04:54;101890.57;;;4.74;61.80
24013;BME280;12220;50.194;18.948;2022-12-29T02:07:03;101885.97;;;4.76;61.75
24013;BME280;12220;50.194;18.948;2022-12-29T02:09:06;101882.38;;;4.75;61.77
24013;BME280;12220;50.194;18.948;2022-12-29T02:11:07;101863.30;;;4.78;61.63
24013;BME280;12220;50.194;18.948;2022-12-29T02:13:11;101856.95;;;4.79;61.73
24013;BME280;12220;50.194;18.948;2022-12-29T02:15:14;101847.80;;;4.82;61.78
24013;BME280;12220;50.194;18.948;2022-12-29T02:26:18;101859.25;;;4.93;61.48
24013;BME280;12220;50.194;18.948;2022-12-29T02:28:46;101864.63;;;4.95;61.25
24013;BME280;12220;50.194;18.948;2022-12-29T02:31:00;101867.25;;;4.98;61.29
24013;BME280;12220;50.194;18.948;2022-12-29T02:40:24;101869.72;;;5.07;61.36
24013;BME280;12220;50.194;18.948;2022-12-29T02:42:47;101864.30;;;5.07;61.26
24013;BME280;12220;50.194;18.948;2022-12-29T02:47:30;101856.10;;;5.09;61.27
24013;BME280;12220;50.194;18.948;2022-12-29T02:49:49;101858.81;;;5.09;61.28
24013;BME280;12220;50.194;18.948;2022-12-29T02:52:14;101858.81;;;5.09;61.28
24013;BME280;12220;50.194;18.948;2022-12-29T02:54:18;101855.19;;;5.08;61.25
24013;BME280;12220;50.194;18.948;2022-12-29T02:56:31;101862.50;;;5.06;61.26
24013;BME280;12220;50.194;18.948;2022-12-29T02:58:33;101864.34;;;5.05;61.29
24013;BME280;12220;50.194;18.948;2022-12-29T03:00:46;101860.71;;;5.05;61.35
24013;BME280;12220;50.194;18.948;2022-12-29T03:10:15;101699.98;;;4.01;61.48
24013;BME280;12220;50.194;18.948;2022-12-29T03:12:39;101860.16;;;4.94;61.53
24013;BME280;12220;50.194;18.948;2022-12-29T03:15:00;101858.46;;;4.89;61.57
24013;BME280;12220;50.194;18.948;2022-12-29T03:19:34;101844.12;;;4.84;61.66
24013;BME280;12220;50.194;18.948;2022-12-29T03:23:57;101848.03;;;4.74;61.62
24013;BME280;12220;50.194;18.948;2022-12-29T03:26:02;101853.55;;;4.71;61.70
24013;BME280;12220;50.194;18.948;2022-12-29T03:28:11;101858.13;;;4.69;61.82
24013;BME280;12220;50.194;18.948;2022-12-29T03:30:25;101850.00;;;4.69;61.97
24013;BME280;12220;50.194;18.948;2022-12-29T03:34:40;101845.49;;;4.68;62.05
24013;BME280;12220;50.194;18.948;2022-12-29T03:37:06;101841.86;;;4.69;62.10
24013;BME280;12220;50.194;18.948;2022-12-29T03:39:04;101829.17;;;4.69;62.17
24013;BME280;12220;50.194;18.948;2022-12-29T03:41:11;101837.27;;;4.71;62.22
24013;BME280;12220;50.194;18.948;2022-12-29T03:43:16;101832.72;;;4.71;62.27
24013;BME280;12220;50.194;18.948;2022-12-29T03:45:19;101837.17;;;4.74;62.28
24013;BME280;12220;50.194;18.948;2022-12-29T03:47:20;101829.91;;;4.75;62.27
24013;BME280;12220;50.194;18.948;2022-12-29T03:49:23;101835.34;;;4.76;62.28
24013;BME280;12220;50.194;18.948;2022-12-29T03:51:24;101846.19;;;4.76;62.33
24013;BME280;12220;50.194;18.948;2022-12-29T03:53:26;101829.90;;;4.76;62.35
24013;BME280;12220;50.194;18.948;2022-12-29T03:55:27;101830.77;;;4.77;62.35
24013;BME280;12220;50.194;18.948;2022-12-29T03:57:38;101821.77;;;4.76;62.38
24013;BME280;12220;50.194;18.948;2022-12-29T03:59:40;101813.63;;;4.76;62.40
24013;BME280;12220;50.194;18.948;2022-12-29T04:01:41;101805.53;;;4.73;62.39
24013;BME280;12220;50.194;18.948;2022-12-29T04:06:03;101793.80;;;4.73;62.43
24013;BME280;12220;50.194;18.948;2022-12-29T04:08:15;101796.61;;;4.69;62.42
24013;BME280;12220;50.194;18.948;2022-12-29T04:10:16;101791.27;;;4.66;62.44
24013;BME280;12220;50.194;18.948;2022-12-29T04:12:18;101781.34;;;4.65;62.51
24013;BME280;12220;50.194;18.948;2022-12-29T04:14:19;101784.98;;;4.64;62.57
24013;BME280;12220;50.194;18.948;2022-12-29T04:16:30;101779.60;;;4.63;62.60
24013;BME280;12220;50.194;18.948;2022-12-29T04:18:31;101767.00;;;4.62;62.63
24013;BME280;12220;50.194;18.948;2022-12-29T04:20:32;101777.84;;;4.62;62.60
24013;BME280;12220;50.194;18.948;2022-12-29T04:22:46;101780.63;;;4.59;62.59
24013;BME280;12220;50.194;18.948;2022-12-29T04:24:47;101769.82;;;4.57;62.58
24013;BME280;12220;50.194;18.948;2022-12-29T04:26:49;101773.48;;;4.56;62.59
24013;BME280;12220;50.194;18.948;2022-12-29T04:28:51;101770.91;;;4.51;62.58
24013;BME280;12220;50.194;18.948;2022-12-29T04:30:52;101778.14;;;4.51;62.64
24013;BME280;12220;50.194;18.948;2022-12-29T04:33:00;101769.13;;;4.50;62.69
24013;BME280;12220;50.194;18.948;2022-12-29T04:35:01;101766.45;;;4.49;62.72
24013;BME280;12220;50.194;18.948;2022-12-29T04:37:03;101768.30;;;4.47;62.72
24013;BME280;12220;50.194;18.948;2022-12-29T04:39:04;101780.15;;;4.44;62.72
24013;BME280;12220;50.194;18.948;2022-12-29T04:41:15;101776.66;;;4.39;62.71
24013;BME280;12220;50.194;18.948;2022-12-29T04:43:17;101767.83;;;4.31;62.83
24013;BME280;12220;50.194;18.948;2022-12-29T04:45:20;101776.05;;;4.28;62.94
24013;BME280;12220;50.194;18.948;2022-12-29T04:47:21;101771.73;;;4.21;63.06
24013;BME280;12220;50.194;18.948;2022-12-29T04:49:30;101777.25;;;4.17;63.20
24013;BME280;12220;50.194;18.948;2022-12-29T04:51:31;101775.53;;;4.13;63.32
24013;BME280;12220;50.194;18.948;2022-12-29T04:53:33;101809.06;;;4.11;63.40
24013;BME280;12220;50.194;18.948;2022-12-29T04:55:34;101773.87;;;4.09;63.44
24013;BME280;12220;50.194;18.948;2022-12-29T04:57:45;101769.49;;;4.04;63.43
24013;BME280;12220;50.194;18.948;2022-12-29T04:59:47;101780.48;;;3.97;63.45
24013;BME280;12220;50.194;18.948;2022-12-29T05:01:48;101543.27;;;2.48;63.41
24013;BME280;12220;50.194;18.948;2022-12-29T05:03:50;101775.42;;;3.83;63.63
24013;BME280;12220;50.194;18.948;2022-12-29T05:06:00;101773.76;;;3.78;63.69
24013;BME280;12220;50.194;18.948;2022-12-29T05:08:01;101773.88;;;3.73;63.87
24013;BME280;12220;50.194;18.948;2022-12-29T05:10:04;101764.05;;;3.69;63.97
24013;BME280;12220;50.194;18.948;2022-12-29T05:12:05;101767.70;;;3.66;64.07
24013;BME280;12220;50.194;18.948;2022-12-29T05:14:15;101752.41;;;3.64;64.11
24013;BME280;12220;50.194;18.948;2022-12-29T05:16:17;101760.59;;;3.62;64.21
24013;BME280;12220;50.194;18.948;2022-12-29T05:18:19;101756.20;;;3.58;64.29
24013;BME280;12220;50.194;18.948;2022-12-29T05:20:20;101766.12;;;3.58;64.36
24013;BME280;12220;50.194;18.948;2022-12-29T05:22:30;101768.87;;;3.56;64.41
24013;BME280;12220;50.194;18.948;2022-12-29T05:24:32;101778.90;;;3.53;64.50
24013;BME280;12220;50.194;18.948;2022-12-29T05:26:33;101774.40;;;3.52;64.59
24013;BME280;12220;50.194;18.948;2022-12-29T05:28:35;101771.70;;;3.52;64.65
24013;BME280;12220;50.194;18.948;2022-12-29T05:30:48;101775.24;;;3.54;64.94
24013;BME280;12220;50.194;18.948;2022-12-29T05:32:50;101775.99;;;3.60;65.13
24013;BME280;12220;50.194;18.948;2022-12-29T05:34:52;101784.84;;;3.69;65.25
24013;BME280;12220;50.194;18.948;2022-12-29T05:36:53;101771.05;;;3.78;65.24
24013;BME280;12220;50.194;18.948;2022-12-29T05:39:00;101760.00;;;3.86;65.31
24013;BME280;12220;50.194;18.948;2022-12-29T05:41:02;101764.21;;;3.97;65.22
24013;BME280;12220;50.194;18.948;2022-12-29T05:43:03;101742.34;;;4.05;65.17
24013;BME280;12220;50.194;18.948;2022-12-29T05:45:06;101745.72;;;4.13;65.05
24013;BME280;12220;50.194;18.948;2022-12-29T05:47:15;101747.34;;;4.21;64.98
24013;BME280;12220;50.194;18.948;2022-12-29T05:49:17;101764.33;;;4.27;64.89
24013;BME280;12220;50.194;18.948;2022-12-29T05:51:18;101804.84;;;4.33;64.81
24013;BME280;12220;50.194;18.948;2022-12-29T05:53:20;101759.51;;;4.39;64.71
24013;BME280;12220;50.194;18.948;2022-12-29T05:55:30;101756.66;;;4.43;64.66
24013;BME280;12220;50.194;18.948;2022-12-29T05:57:32;101767.42;;;4.46;64.59
24013;BME280;12220;50.194;18.948;2022-12-29T05:59:33;101761.95;;;4.48;64.48
24013;BME280;12220;50.194;18.948;2022-12-29T06:01:35;101761.03;;;4.49;64.40
24013;BME280;12220;50.194;18.948;2022-12-29T06:03:45;101762.78;;;4.50;64.39
24013;BME280;12220;50.194;18.948;2022-12-29T06:05:47;101753.76;;;4.49;64.41
24013;BME280;12220;50.194;18.948;2022-12-29T06:07:48;101747.37;;;4.52;64.33
24013;BME280;12220;50.194;18.948;2022-12-29T06:09:50;101741.95;;;4.52;64.30
24013;BME280;12220;50.194;18.948;2022-12-29T06:12:01;101744.66;;;4.52;64.31
24013;BME280;12220;50.194;18.948;2022-12-29T06:14:02;101736.52;;;4.52;64.28
24013;BME280;12220;50.194;18.948;2022-12-29T06:16:04;101742.73;;;4.56;64.31
24013;BME280;12220;50.194;18.948;2022-12-29T06:18:05;101737.27;;;4.57;64.32
24013;BME280;12220;50.194;18.948;2022-12-29T06:20:16;101737.20;;;4.60;64.30
24013;BME280;12220;50.194;18.948;2022-12-29T06:22:17;101739.87;;;4.62;64.28
24013;BME280;12220;50.194;18.948;2022-12-29T06:24:19;101725.34;;;4.63;64.24
24013;BME280;12220;50.194;18.948;2022-12-29T06:26:20;101718.06;;;4.65;64.25
24013;BME280;12220;50.194;18.948;2022-12-29T06:28:31;101726.20;;;4.65;64.26
24013;BME280;12220;50.194;18.948;2022-12-29T06:30:32;101721.70;;;4.64;64.27
24013;BME280;12220;50.194;18.948;2022-12-29T06:32:34;101729.89;;;4.62;64.30
24013;BME280;12220;50.194;18.948;2022-12-29T06:34:35;101729.98;;;4.59;64.33
24013;BME280;12220;50.194;18.948;2022-12-29T06:36:46;101720.10;;;4.57;64.39
24013;BME280;12220;50.194;18.948;2022-12-29T06:38:47;101731.92;;;4.54;64.46
24013;BME280;12220;50.194;18.948;2022-12-29T06:40:49;101728.48;;;4.49;64.46
24013;BME280;12220;50.194;18.948;2022-12-29T06:42:50;101733.90;;;4.49;64.72
24013;BME280;12220;50.194;18.948;2022-12-29T06:45:01;101733.81;;;4.52;64.85
24013;BME280;12220;50.194;18.948;2022-12-29T06:47:03;101738.17;;;4.58;64.93
24013;BME280;12220;50.194;18.948;2022-12-29T06:49:04;101727.97;;;4.66;64.93
24013;BME280;12220;50.194;18.948;2022-12-29T06:51:06;101735.84;;;4.75;64.86
24013;BME280;12220;50.194;18.948;2022-12-29T06:53:16;101726.59;;;4.82;64.80
24013;BME280;12220;50.194;18.948;2022-12-29T06:55:18;101724.51;;;4.91;64.53
24013;BME280;12220;50.194;18.948;2022-12-29T06:57:23;101708.05;;;4.97;64.63
24013;BME280;12220;50.194;18.948;2022-12-29T06:59:24;101709.65;;;5.04;64.53
24013;BME280;12220;50.194;18.948;2022-12-29T07:01:31;101703.09;;;5.11;64.44
24013;BME280;12220;50.194;18.948;2022-12-29T07:03:33;101698.37;;;5.16;64.38
24013;BME280;12220;50.194;18.948;2022-12-29T07:05:34;101710.88;;;5.22;64.21
24013;BME280;12220;50.194;18.948;2022-12-29T07:07:36;101699.85;;;5.27;64.11
24013;BME280;12220;50.194;18.948;2022-12-29T07:09:46;101707.90;;;5.30;63.89
24013;BME280;12220;50.194;18.948;2022-12-29T07:11:48;101458.02;;;3.96;63.70
24013;BME280;12220;50.194;18.948;2022-12-29T07:13:50;101744.94;;;5.32;63.80
24013;BME280;12220;50.194;18.948;2022-12-29T07:15:52;101709.42;;;5.38;63.79
24013;BME280;12220;50.194;18.948;2022-12-29T07:18:01;101709.36;;;5.40;63.73
24013;BME280;12220;50.194;18.948;2022-12-29T07:20:05;101707.51;;;5.42;63.76
24013;BME280;12220;50.194;18.948;2022-12-29T07:22:07;100624.74;;;-0.84;63.29
24013;BME280;12220;50.194;18.948;2022-12-29T07:24:09;101711.00;;;5.46;63.73
24013;BME280;12220;50.194;18.948;2022-12-29T07:26:16;101709.14;;;5.48;63.75
24013;BME280;12220;50.194;18.948;2022-12-29T07:28:20;101704.58;;;5.48;63.73
24013;BME280;12220;50.194;18.948;2022-12-29T07:30:22;101715.33;;;5.51;63.73
24013;BME280;12220;50.194;18.948;2022-12-29T07:32:23;101714.41;;;5.52;63.62
24013;BME280;12220;50.194;18.948;2022-12-29T07:34:31;101725.99;;;5.57;63.62
24013;BME280;12220;50.194;18.948;2022-12-29T07:36:33;101721.47;;;5.58;63.66
24013;BME280;12220;50.194;18.948;2022-12-29T07:38:34;101745.77;;;5.63;63.68
24013;BME280;12220;50.194;18.948;2022-12-29T07:40:35;101746.48;;;5.68;63.67
24013;BME280;12220;50.194;18.948;2022-12-29T07:42:46;101749.99;;;5.71;63.66
24013;BME280;12220;50.194;18.948;2022-12-29T07:44:48;101756.27;;;5.73;63.58
24013;BME280;12220;50.194;18.948;2022-12-29T07:46:54;101751.63;;;5.77;63.61
24013;BME280;12220;50.194;18.948;2022-12-29T07:48:58;101749.73;;;5.79;63.54
24013;BME280;12220;50.194;18.948;2022-12-29T07:51:01;101739.77;;;5.80;63.56
24013;BME280;12220;50.194;18.948;2022-12-29T07:53:03;101753.30;;;5.81;63.58
24013;BME280;12220;50.194;18.948;2022-12-29T07:55:05;101754.13;;;5.83;63.63
24013;BME280;12220;50.194;18.948;2022-12-29T07:57:07;101746.84;;;5.84;63.61
24013;BME280;12220;50.194;18.948;2022-12-29T07:59:16;101739.61;;;5.84;63.58
24013;BME280;12220;50.194;18.948;2022-12-29T08:01:18;101737.71;;;5.86;63.62
24013;BME280;12220;50.194;18.948;2022-12-29T08:03:23;101746.72;;;5.88;63.57
24013;BME280;12220;50.194;18.948;2022-12-29T08:05:26;101749.38;;;5.90;63.57
24013;BME280;12220;50.194;18.948;2022-12-29T08:07:31;101749.34;;;5.91;63.59
24013;BME280;12220;50.194;18.948;2022-12-29T08:09:33;101739.34;;;5.92;63.60
24013;BME280;12220;50.194;18.948;2022-12-29T08:11:34;101744.83;;;5.90;63.63
24013;BME280;12220;50.194;18.948;2022-12-29T08:13:37;101733.96;;;5.90;63.69
24013;BME280;12220;50.194;18.948;2022-12-29T08:15:46;101735.84;;;5.88;63.71
24013;BME280;12220;50.194;18.948;2022-12-29T08:17:48;101736.84;;;5.86;63.77
24013;BME280;12220;50.194;18.948;2022-12-29T08:19:49;101736.03;;;5.82;63.84
24013;BME280;12220;50.194;18.948;2022-12-29T08:21:51;101747.87;;;5.81;63.90
24013;BME280;12220;50.194;18.948;2022-12-29T08:24:01;101734.23;;;5.83;63.91
24013;BME280;12220;50.194;18.948;2022-12-29T08:26:04;101732.39;;;5.83;63.95
24013;BME280;12220;50.194;18.948;2022-12-29T08:28:06;101722.33;;;5.85;63.88
24013;BME280;12220;50.194;18.948;2022-12-29T08:30:09;101730.48;;;5.85;63.84
24013;BME280;12220;50.194;18.948;2022-12-29T08:32:17;101735.92;;;5.85;63.86
24013;BME280;12220;50.194;18.948;2022-12-29T08:34:18;101733.19;;;5.87;63.84
24013;BME280;12220;50.194;18.948;2022-12-29T08:36:20;101746.78;;;5.87;63.80
24013;BME280;12220;50.194;18.948;2022-12-29T08:38:21;101731.40;;;5.86;63.73
24013;BME280;12220;50.194;18.948;2022-12-29T08:40:31;101744.09;;;5.85;63.76
24013;BME280;12220;50.194;18.948;2022-12-29T08:42:33;101738.76;;;5.82;63.80
24013;BME280;12220;50.194;18.948;2022-12-29T08:44:34;101738.80;;;5.81;63.77
24013;BME280;12220;50.194;18.948;2022-12-29T08:46:36;101742.48;;;5.80;63.80
24013;BME280;12220;50.194;18.948;2022-12-29T08:48:46;101745.23;;;5.78;63.83
24013;BME280;12220;50.194;18.948;2022-12-29T08:50:49;101784.20;;;5.79;63.90
24013;BME280;12220;50.194;18.948;2022-12-29T08:52:51;101746.13;;;5.79;63.91
24013;BME280;12220;50.194;18.948;2022-12-29T08:54:53;101741.52;;;5.81;63.92
24013;BME280;12220;50.194;18.948;2022-12-29T08:57:01;101741.52;;;5.81;63.94
24013;BME280;12220;50.194;18.948;2022-12-29T08:59:03;101745.16;;;5.81;63.94
24013;BME280;12220;50.194;18.948;2022-12-29T09:01:04;101742.44;;;5.81;63.97
24013;BME280;12220;50.194;18.948;2022-12-29T09:03:06;101740.59;;;5.82;63.99
24013;BME280;12220;50.194;18.948;2022-12-29T09:05:17;101748.69;;;5.83;64.06
24013;BME280;12220;50.194;18.948;2022-12-29T09:07:18;101754.02;;;5.86;64.09
24013;BME280;12220;50.194;18.948;2022-12-29T09:09:20;101752.21;;;5.87;64.19
24013;BME280;12220;50.194;18.948;2022-12-29T09:11:24;101745.74;;;5.89;64.26
24013;BME280;12220;50.194;18.948;2022-12-29T09:13:32;101752.88;;;5.93;64.36
24013;BME280;12220;50.194;18.948;2022-12-29T09:15:33;101755.48;;;5.97;64.51
24013;BME280;12220;50.194;18.948;2022-12-29T09:17:35;101756.26;;;6.02;64.54
24013;BME280;12220;50.194;18.948;2022-12-29T09:19:45;101750.59;;;6.08;64.55
24013;BME280;12220;50.194;18.948;2022-12-29T09:21:47;101739.49;;;6.14;64.54
24013;BME280;12220;50.194;18.948;2022-12-29T09:23:48;101737.63;;;6.16;64.44
24013;BME280;12220;50.194;18.948;2022-12-29T09:25:50;101738.21;;;6.24;64.47
24013;BME280;12220;50.194;18.948;2022-12-29T09:27:52;101744.34;;;6.31;64.47
24013;BME280;12220;50.194;18.948;2022-12-29T09:30:04;101747.73;;;6.38;64.41
24013;BME280;12220;50.194;18.948;2022-12-29T09:32:07;101742.06;;;6.44;64.35
24013;BME280;12220;50.194;18.948;2022-12-29T09:34:08;101522.68;;;5.20;64.31
24013;BME280;12220;50.194;18.948;2022-12-29T09:36:10;101735.09;;;6.60;64.39
24013;BME280;12220;50.194;18.948;2022-12-29T09:38:17;101734.80;;;6.68;64.39
24013;BME280;12220;50.194;18.948;2022-12-29T09:42:38;101731.44;;;6.85;63.95
24013;BME280;12220;50.194;18.948;2022-12-29T09:46:55;101730.66;;;7.05;63.71
24013;BME280;12220;50.194;18.948;2022-12-29T09:51:22;101719.26;;;7.18;63.23
24013;BME280;12220;50.194;18.948;2022-12-29T09:55:43;101717.88;;;7.29;63.34
24013;BME280;12220;50.194;18.948;2022-12-29T10:00:23;101708.40;;;7.40;62.96
24013;BME280;12220;50.194;18.948;2022-12-29T10:02:16;101710.02;;;7.44;62.96
24013;BME280;12220;50.194;18.948;2022-12-29T10:04:27;101709.88;;;7.47;62.91
24013;BME280;12220;50.194;18.948;2022-12-29T10:06:42;101684.95;;;7.36;62.86
24013;BME280;12220;50.194;18.948;2022-12-29T10:13:26;101715.98;;;7.54;62.70
24013;BME280;12220;50.194;18.948;2022-12-29T10:17:47;101709.39;;;7.59;62.73
24013;BME280;12220;50.194;18.948;2022-12-29T10:22:32;101702.52;;;7.71;62.85
24013;BME280;12220;50.194;18.948;2022-12-29T10:24:39;101597.72;;;7.15;62.81
24013;BME280;12220;50.194;18.948;2022-12-29T10:26:43;101698.45;;;7.81;62.90
24013;BME280;12220;50.194;18.948;2022-12-29T10:28:55;101694.49;;;7.89;62.96
24013;BME280;12220;50.194;18.948;2022-12-29T10:30:59;101690.62;;;7.94;62.64
24013;BME280;12220;50.194;18.948;2022-12-29T10:33:04;101696.64;;;8.02;62.43
24013;BME280;12220;50.194;18.948;2022-12-29T10:35:20;101690.76;;;8.12;62.36
24013;BME280;12220;50.194;18.948;2022-12-29T10:39:45;101688.02;;;8.32;62.05
24013;BME280;12220;50.194;18.948;2022-12-29T10:42:13;101683.87;;;8.44;61.75
24013;BME280;12220;50.194;18.948;2022-12-29T10:44:02;101679.67;;;8.56;61.62
24013;BME280;12220;50.194;18.948;2022-12-29T10:46:12;101677.33;;;8.67;61.79
24013;BME280;12220;50.194;18.948;2022-12-29T10:48:30;101685.90;;;8.79;61.82
24013;BME280;12220;50.194;18.948;2022-12-29T10:50:32;101672.79;;;8.87;60.89
24013;BME280;12220;50.194;18.948;2022-12-29T10:52:35;101674.12;;;8.97;60.76
24013;BME280;12220;50.194;18.948;2022-12-29T10:54:48;101684.65;;;9.05;60.63
24013;BME280;12220;50.194;18.948;2022-12-29T10:56:54;101673.34;;;9.13;60.29
24013;BME280;12220;50.194;18.948;2022-12-29T10:59:16;101480.47;;;7.97;60.00
24013;BME280;12220;50.194;18.948;2022-12-29T11:01:23;101677.47;;;9.21;60.23
24013;BME280;12220;50.194;18.948;2022-12-29T11:03:40;101679.17;;;9.24;60.00
24013;BME280;12220;50.194;18.948;2022-12-29T11:05:55;101678.92;;;9.29;59.72
24013;BME280;12220;50.194;18.948;2022-12-29T11:08:02;101677.98;;;9.30;59.48
24013;BME280;12220;50.194;18.948;2022-12-29T11:14:34;101684.32;;;9.30;59.74
24013;BME280;12220;50.194;18.948;2022-12-29T11:16:36;101678.85;;;9.30;59.82
24013;BME280;12220;50.194;18.948;2022-12-29T11:18:40;101679.69;;;9.32;59.79
24013;BME280;12220;50.194;18.948;2022-12-29T11:20:43;101673.23;;;9.33;59.60
24013;BME280;12220;50.194;18.948;2022-12-29T11:22:48;101675.89;;;9.35;59.74
24013;BME280;12220;50.194;18.948;2022-12-29T11:24:51;101678.57;;;9.36;59.84
24013;BME280;12220;50.194;18.948;2022-12-29T11:26:55;101665.62;;;9.40;59.96
24013;BME280;12220;50.194;18.948;2022-12-29T11:31:17;101666.20;;;9.47;59.86
24013;BME280;12220;50.194;18.948;2022-12-29T11:33:28;101674.33;;;9.48;59.73
24013;BME280;12220;50.194;18.948;2022-12-29T11:35:33;101671.45;;;9.51;59.57
24013;BME280;12220;50.194;18.948;2022-12-29T11:37:39;101673.14;;;9.54;59.54
24013;BME280;12220;50.194;18.948;2022-12-29T11:41:55;101669.13;;;9.61;59.49
24013;BME280;12220;50.194;18.948;2022-12-29T11:44:05;101669.83;;;9.65;59.23
24013;BME280;12220;50.194;18.948;2022-12-29T11:46:16;101675.07;;;9.69;59.47
24013;BME280;12220;50.194;18.948;2022-12-29T11:48:20;101662.93;;;9.75;59.44
24013;BME280;12220;50.194;18.948;2022-12-29T11:50:25;101662.52;;;9.83;59.44
24013;BME280;12220;50.194;18.948;2022-12-29T11:52:32;101668.48;;;9.91;59.48
24013;BME280;12220;50.194;18.948;2022-12-29T11:54:45;101659.95;;;9.97;59.51
24013;BME280;12220;50.194;18.948;2022-12-29T11:56:48;101672.34;;;10.04;59.42
24013;BME280;12220;50.194;18.948;2022-12-29T11:58:50;101674.73;;;10.10;59.08
24013;BME280;12220;50.194;18.948;2022-12-29T12:00:55;101660.17;;;10.10;58.76
24013;BME280;12220;50.194;18.948;2022-12-29T12:03:04;101667.01;;;10.19;58.81
24013;BME280;12220;50.194;18.948;2022-12-29T12:09:40;101660.06;;;10.29;58.70
24013;BME280;12220;50.194;18.948;2022-12-29T12:11:45;101674.49;;;10.33;58.69
24013;BME280;12220;50.194;18.948;2022-12-29T12:16:17;101674.27;;;10.37;57.90
24013;BME280;12220;50.194;18.948;2022-12-29T12:25:25;101682.23;;;10.42;58.07